createdAt,value
2018-10-18T00:00:12.007Z,65.34
2018-10-18T00:01:12.132Z,65.63
2018-10-18T00:02:12.451Z,66.11
2018-10-18T00:03:12.282Z,65.53
2018-10-18T00:04:12.208Z,65.63
2018-10-18T00:05:11.985Z,65.91
2018-10-18T00:06:12.494Z,65.72
2018-10-18T00:07:12.291Z,65.72
2018-10-18T00:08:12.107Z,66.2
2018-10-18T00:09:12.085Z,65.72
2018-10-18T00:10:12.113Z,65.91
2018-10-18T00:11:12.397Z,66.14
2018-10-18T00:12:12.255Z,65.91
2018-10-18T00:13:12.454Z,65.82
2018-10-18T00:14:12.669Z,65.34
2018-10-18T00:15:12.507Z,66.4
2018-10-18T00:17:12.564Z,66.01
2018-10-18T00:18:12.405Z,66.01
2018-10-18T00:19:12.359Z,65.82
2018-10-18T00:20:12.879Z,65.91
2018-10-18T00:21:12.411Z,66.01
2018-10-18T00:22:12.446Z,66.3
2018-10-18T00:23:12.465Z,66.11
2018-10-18T00:24:12.554Z,66.11
2018-10-18T00:25:12.520Z,66.01
2018-10-18T00:26:13.092Z,66.3
2018-10-18T00:27:12.573Z,66.3
2018-10-18T00:28:12.602Z,66.2
2018-10-18T00:29:12.885Z,66.3
2018-10-18T00:30:13.114Z,66.2
2018-10-18T00:31:12.944Z,66.3
2018-10-18T00:32:12.813Z,66.11
2018-10-18T00:33:12.737Z,66.3
2018-10-18T00:34:12.765Z,66.4
2018-10-18T00:35:12.791Z,66.49
2018-10-18T00:36:13.290Z,66.59
2018-10-18T00:37:13.101Z,66.49
2018-10-18T00:38:13.367Z,66.2
2018-10-18T00:39:13.195Z,66.49
2018-10-18T00:40:13.185Z,66.3
2018-10-18T00:41:13.207Z,66.69
2018-10-18T00:42:13.577Z,66.59
2018-10-18T00:43:13.267Z,66.88
2018-10-18T00:44:13.511Z,66.69
2018-10-18T00:45:13.059Z,66.69
2018-10-18T00:46:13.552Z,66.59
2018-10-18T00:47:13.375Z,66.59
2018-10-18T00:48:13.637Z,66.59
2018-10-18T00:49:13.172Z,66.4
2018-10-18T00:50:13.304Z,66.4
2018-10-18T00:51:13.478Z,66.69
2018-10-18T00:52:13.250Z,66.69
2018-10-18T00:53:13.536Z,66.59
2018-10-18T00:54:13.331Z,66.69
2018-10-18T00:55:13.603Z,66.69
2018-10-18T00:56:13.835Z,66.69
2018-10-18T00:57:13.638Z,66.3
2018-10-18T00:58:13.671Z,65.91
2018-10-18T00:59:13.694Z,65.91
2018-10-18T01:00:13.986Z,65.82
2018-10-18T01:01:13.750Z,65.82
2018-10-18T01:02:13.981Z,66.01
2018-10-18T01:03:13.802Z,65.82
2018-10-18T01:04:13.829Z,65.63
2018-10-18T01:05:13.853Z,65.53
2018-10-18T01:06:14.144Z,65.91
2018-10-18T01:07:13.910Z,65.91
2018-10-18T01:08:14.175Z,65.63
2018-10-18T01:09:13.707Z,65.91
2018-10-18T01:10:13.733Z,65.34
2018-10-18T01:11:13.758Z,65.82
2018-10-18T01:12:14.399Z,64.95
2018-10-18T01:13:14.076Z,65.72
2018-10-18T01:14:14.305Z,65.53
2018-10-18T01:15:14.134Z,65.63
2018-10-18T01:16:14.150Z,65.34
2018-10-18T01:17:13.925Z,65.82
2018-10-18T01:18:14.384Z,65.82
2018-10-18T01:19:14.236Z,65.91
2018-10-18T01:20:14.647Z,66.01
2018-10-18T01:21:14.287Z,66.11
2018-10-18T01:22:14.320Z,66.4
2018-10-18T01:23:14.342Z,66.78
2018-10-18T01:24:14.641Z,66.69
2018-10-18T01:25:14.392Z,66.69
2018-10-18T01:26:14.569Z,66.69
2018-10-18T01:27:14.189Z,66.4
2018-10-18T01:28:14.484Z,66.49
2018-10-18T01:29:14.503Z,66.4
2018-10-18T01:30:14.793Z,66.59
2018-10-18T01:31:14.303Z,66.2
2018-10-18T01:32:14.426Z,66.2
2018-10-18T01:33:14.351Z,66.2
2018-10-18T01:34:14.389Z,66.49
2018-10-18T01:35:14.669Z,66.49
2018-10-18T01:36:14.906Z,66.78
2018-10-18T01:37:14.720Z,67.27
2018-10-18T01:38:14.958Z,66.97
2018-10-18T01:39:14.774Z,67.17
2018-10-18T01:40:14.545Z,67.07
2018-10-18T01:41:14.834Z,66.49
2018-10-18T01:42:14.680Z,66.78
2018-10-18T01:43:14.882Z,67.17
2018-10-18T01:44:15.135Z,66.69
2018-10-18T01:45:14.675Z,67.17
2018-10-18T01:46:14.958Z,66.88
2018-10-18T01:47:14.728Z,67.17
2018-10-18T01:48:15.372Z,67.07
2018-10-18T01:49:15.049Z,67.17
2018-10-18T01:50:15.291Z,67.27
2018-10-18T01:51:14.842Z,67.07
2018-10-18T01:52:14.865Z,67.07
2018-10-18T01:53:15.152Z,67.07
2018-10-18T01:54:15.383Z,66.59
2018-10-18T01:55:15.203Z,67.27
2018-10-18T01:56:15.492Z,67.46
2018-10-18T01:57:15.259Z,67.36
2018-10-18T01:58:15.027Z,67.27
2018-10-18T01:59:15.314Z,67.07
2018-10-18T02:00:15.633Z,67.46
2018-10-18T02:01:15.373Z,66.97
2018-10-18T02:02:15.655Z,67.07
2018-10-18T02:03:15.163Z,66.88
2018-10-18T02:04:15.453Z,67.07
2018-10-18T02:05:15.474Z,67.27
2018-10-18T02:06:15.659Z,67.46
2018-10-18T02:07:15.537Z,67.36
2018-10-18T02:08:15.931Z,67.17
2018-10-18T02:09:15.589Z,67.36
2018-10-18T02:10:15.614Z,67.36
2018-10-18T02:11:15.687Z,67.36
2018-10-18T02:12:16.090Z,67.17
2018-10-18T02:13:15.440Z,66.88
2018-10-18T02:14:15.712Z,67.17
2018-10-18T02:15:15.487Z,67.36
2018-10-18T02:16:15.771Z,66.97
2018-10-18T02:17:15.799Z,67.17
2018-10-18T02:18:16.064Z,67.36
2018-10-18T02:19:16.104Z,66.97
2018-10-18T02:20:15.622Z,67.75
2018-10-18T02:21:15.652Z,67.17
2018-10-18T02:22:15.933Z,67.75
2018-10-18T02:23:15.706Z,67.36
2018-10-18T02:24:16.178Z,67.55
2018-10-18T02:25:15.818Z,67.55
2018-10-18T02:26:15.780Z,67.75
2018-10-18T02:27:16.071Z,67.55
2018-10-18T02:28:16.109Z,67.36
2018-10-18T02:29:16.132Z,67.36
2018-10-18T02:30:16.407Z,67.46
2018-10-18T02:31:16.202Z,67.36
2018-10-18T02:32:16.202Z,67.55
2018-10-18T02:33:16.232Z,67.55
2018-10-18T02:34:15.997Z,67.36
2018-10-18T02:35:16.033Z,67.55
2018-10-18T02:36:16.529Z,67.85
2018-10-18T02:37:16.080Z,67.36
2018-10-18T02:38:16.365Z,67.27
2018-10-18T02:39:16.140Z,67.36
2018-10-18T02:40:16.419Z,67.65
2018-10-18T02:41:16.442Z,67.65
2018-10-18T02:42:16.801Z,67.65
2018-10-18T02:43:16.504Z,67.65
2018-10-18T02:44:16.318Z,67.75
2018-10-18T02:45:16.294Z,67.55
2018-10-18T02:46:16.579Z,67.65
2018-10-18T02:47:16.347Z,67.75
2018-10-18T02:48:16.852Z,67.65
2018-10-18T02:49:16.664Z,67.65
2018-10-18T02:50:16.686Z,67.55
2018-10-18T02:51:16.454Z,67.36
2018-10-18T02:52:16.740Z,67.55
2018-10-18T02:53:16.770Z,67.75
2018-10-18T02:54:17.049Z,67.85
2018-10-18T02:55:16.822Z,67.85
2018-10-18T02:56:16.589Z,67.46
2018-10-18T02:57:16.619Z,67.46
2018-10-18T02:58:16.898Z,67.55
2018-10-18T02:59:16.928Z,67.85
2018-10-18T03:00:17.215Z,67.65
2018-10-18T03:01:16.987Z,67.46
2018-10-18T03:02:17.013Z,67.75
2018-10-18T03:03:17.040Z,67.75
2018-10-18T03:04:17.068Z,67.85
2018-10-18T03:05:16.835Z,67.55
2018-10-18T03:06:17.358Z,67.94
2018-10-18T03:07:17.145Z,67.75
2018-10-18T03:08:16.916Z,67.55
2018-10-18T03:09:16.942Z,67.85
2018-10-18T03:10:17.237Z,67.46
2018-10-18T03:11:17.004Z,67.85
2018-10-18T03:12:17.696Z,67.46
2018-10-18T03:13:17.050Z,68.13
2018-10-18T03:14:17.332Z,67.65
2018-10-18T03:15:17.365Z,67.36
2018-10-18T03:16:17.569Z,67.75
2018-10-18T03:17:17.422Z,67.75
2018-10-18T03:18:17.670Z,68.13
2018-10-18T03:19:17.208Z,67.55
2018-10-18T03:20:17.241Z,67.65
2018-10-18T03:21:17.523Z,67.94
2018-10-18T03:22:17.545Z,67.65
2018-10-18T03:23:17.583Z,67.85
2018-10-18T03:24:17.446Z,68.04
2018-10-18T03:25:17.637Z,68.23
2018-10-18T03:26:17.406Z,67.94
2018-10-18T03:27:17.436Z,67.46
2018-10-18T03:28:17.457Z,67.36
2018-10-18T03:29:17.479Z,67.85
2018-10-18T03:30:17.590Z,67.85
2018-10-18T03:31:17.792Z,67.94
2018-10-18T03:32:17.845Z,67.85
2018-10-18T03:33:17.842Z,67.75
2018-10-18T03:34:17.871Z,67.65
2018-10-18T03:35:17.644Z,67.65
2018-10-18T03:36:18.211Z,67.65
2018-10-18T03:37:17.704Z,67.65
2018-10-18T03:38:17.980Z,67.94
2018-10-18T03:39:18.013Z,67.55
2018-10-18T03:40:18.037Z,67.36
2018-10-18T03:41:17.847Z,68.13
2018-10-18T03:42:18.357Z,67.55
2018-10-18T03:43:18.115Z,67.75
2018-10-18T03:44:18.141Z,67.55
2018-10-18T03:45:18.172Z,66.97
2018-10-18T03:46:18.195Z,67.46
2018-10-18T03:47:18.222Z,67.94
2018-10-18T03:48:24.262Z,67.94
2018-10-18T03:49:18.273Z,68.52
2018-10-18T03:50:18.309Z,68.43
2018-10-18T03:51:18.325Z,68.52
2018-10-18T03:52:18.099Z,68.71
2018-10-18T03:53:18.384Z,68.91
2018-10-18T03:54:18.326Z,69.26
2018-10-18T03:55:18.176Z,68.87
2018-10-18T03:56:18.465Z,68.87
2018-10-18T03:57:18.236Z,69.64
2018-10-18T03:58:18.522Z,69.16
2018-10-18T03:59:18.285Z,69.64
2018-10-18T04:00:18.826Z,69.64
2018-10-18T04:01:18.593Z,69.35
2018-10-18T04:02:18.368Z,69.35
2018-10-18T04:03:18.662Z,69.55
2018-10-18T04:04:18.679Z,69.45
2018-10-18T04:05:18.703Z,69.55
2018-10-18T04:06:18.999Z,69.93
2018-10-18T04:07:18.754Z,69.93
2018-10-18T04:08:18.785Z,70.03
2018-10-18T04:09:18.820Z,69.35
2018-10-18T04:10:18.581Z,69.35
2018-10-18T04:11:18.917Z,69.35
2018-10-18T04:12:19.277Z,69.84
2018-10-18T04:13:19.174Z,69.74
2018-10-18T04:14:18.948Z,69.93
2018-10-18T04:15:18.972Z,69.26
2018-10-18T04:16:18.744Z,69.45
2018-10-18T04:17:19.023Z,68.68
2018-10-18T04:18:18.819Z,68.87
2018-10-18T04:19:19.092Z,69.64
2018-10-18T04:20:18.848Z,70.22
2018-10-18T04:21:19.134Z,69.74
2018-10-18T04:22:18.909Z,69.68
2018-10-18T04:23:18.934Z,70.03
2018-10-18T04:24:19.458Z,70.42
2018-10-18T04:25:19.000Z,70.51
2018-10-18T04:26:19.011Z,70.7
2018-10-18T04:27:19.294Z,71.19
2018-10-18T04:28:19.327Z,71.28
2018-10-18T04:29:19.092Z,70.9
2018-10-18T04:30:19.650Z,71.09
2018-10-18T04:31:19.401Z,71.19
2018-10-18T04:32:19.172Z,71.19
2018-10-18T04:33:19.479Z,70.9
2018-10-18T04:34:19.229Z,71.09
2018-10-18T04:35:19.506Z,71.28
2018-10-18T04:36:19.419Z,71.09
2018-10-18T04:37:19.742Z,71.28
2018-10-18T04:38:19.341Z,71.19
2018-10-18T04:39:19.368Z,70.32
2018-10-18T04:40:19.390Z,69.16
2018-10-18T04:41:19.681Z,67.91
2018-10-18T04:42:19.953Z,67.81
2018-10-18T04:43:19.724Z,67.71
2018-10-18T04:44:19.497Z,67.81
2018-10-18T04:45:19.789Z,67.43
2018-10-18T04:46:19.805Z,67.33
2018-10-18T04:47:20.177Z,67.14
2018-10-18T04:48:20.088Z,66.36
2018-10-18T04:49:19.631Z,66.56
2018-10-18T04:50:19.912Z,66.36
2018-10-18T04:51:19.686Z,65.88
2018-10-18T04:52:19.712Z,65.98
2018-10-18T04:53:19.737Z,65.88
2018-10-18T04:54:20.024Z,65.4
2018-10-18T04:55:20.243Z,65.2
2018-10-18T04:56:20.080Z,65.5
2018-10-18T04:57:20.100Z,65.4
2018-10-18T04:58:19.878Z,65.59
2018-10-18T04:59:20.160Z,65.4
2018-10-18T05:00:19.924Z,64.92
2018-10-18T05:01:20.567Z,64.43
2018-10-18T05:02:19.984Z,64.53
2018-10-18T05:03:20.272Z,64.24
2018-10-18T05:04:20.292Z,63.95
2018-10-18T05:05:20.062Z,64.34
2018-10-18T05:06:20.426Z,64.24
2018-10-18T05:07:20.556Z,64.82
2018-10-18T05:08:20.413Z,64.43
2018-10-18T05:09:20.427Z,63.37
2018-10-18T05:10:20.207Z,63.57
2018-10-18T05:11:20.713Z,64.15
2018-10-18T05:12:20.507Z,64.34
2018-10-18T05:13:20.733Z,64.53
2018-10-18T05:14:20.306Z,64.34
2018-10-18T05:15:20.330Z,64.24
2018-10-18T05:16:20.612Z,64.34
2018-10-18T05:17:20.638Z,63.95
2018-10-18T05:18:20.666Z,64.05
2018-10-18T05:19:20.442Z,64.15
2018-10-18T05:20:20.467Z,64.24
2018-10-18T05:21:20.751Z,64.24
2018-10-18T05:22:20.519Z,64.24
2018-10-18T05:23:20.795Z,64.15
2018-10-18T05:24:20.572Z,63.76
2018-10-18T05:25:21.240Z,63.37
2018-10-18T05:26:20.627Z,63.37
2018-10-18T05:27:20.655Z,63.37
2018-10-18T05:28:20.938Z,63.67
2018-10-18T05:29:20.964Z,63.67
2018-10-18T05:30:20.738Z,63.67
2018-10-18T05:31:21.275Z,63.37
2018-10-18T05:32:20.784Z,63.67
2018-10-18T05:33:21.070Z,63.28
2018-10-18T05:34:21.093Z,63.37
2018-10-18T05:35:21.125Z,63.18
2018-10-18T05:36:21.154Z,63.28
2018-10-18T05:37:21.338Z,63.28
2018-10-18T05:38:21.203Z,63.09
2018-10-18T05:39:21.225Z,63.28
2018-10-18T05:40:21.265Z,63.47
2018-10-18T05:41:21.282Z,63.37
2018-10-18T05:42:21.052Z,63.47
2018-10-18T05:43:21.479Z,63.47
2018-10-18T05:44:21.101Z,63.37
2018-10-18T05:45:21.386Z,63.37
2018-10-18T05:46:21.411Z,63.47
2018-10-18T05:47:21.271Z,63.37
2018-10-18T05:48:21.217Z,63.18
2018-10-18T05:49:21.786Z,63.18
2018-10-18T05:50:21.526Z,63.47
2018-10-18T05:51:21.299Z,63.47
2018-10-18T05:52:21.320Z,63.37
2018-10-18T05:53:21.839Z,63.47
2018-10-18T05:54:21.830Z,63.28
2018-10-18T05:55:21.399Z,63.37
2018-10-18T05:56:21.430Z,63.37
2018-10-18T05:57:21.712Z,63.47
2018-10-18T05:58:21.737Z,63.18
2018-10-18T05:59:21.509Z,63.28
2018-10-18T06:00:21.614Z,63.28
2018-10-18T06:01:21.567Z,63.37
2018-10-18T06:02:21.842Z,63.37
2018-10-18T06:03:21.614Z,63.47
2018-10-18T06:04:21.899Z,63.47
2018-10-18T06:05:21.929Z,63.47
2018-10-18T06:06:21.946Z,63.37
2018-10-18T06:07:21.979Z,63.47
2018-10-18T06:08:21.748Z,63.37
2018-10-18T06:09:22.038Z,63.28
2018-10-18T06:10:21.883Z,63.47
2018-10-18T06:11:22.089Z,63.47
2018-10-18T06:12:22.114Z,63.28
2018-10-18T06:13:22.488Z,63.18
2018-10-18T06:14:21.906Z,63.47
2018-10-18T06:15:22.190Z,63.18
2018-10-18T06:16:21.963Z,63.18
2018-10-18T06:17:22.242Z,63.28
2018-10-18T06:18:22.282Z,63.47
2018-10-18T06:19:22.413Z,63.18
2018-10-18T06:20:22.327Z,62.89
2018-10-18T06:21:22.097Z,63.09
2018-10-18T06:22:22.382Z,62.99
2018-10-18T06:23:22.349Z,63.09
2018-10-18T06:24:22.436Z,63.57
2018-10-18T06:25:22.459Z,63.09
2018-10-18T06:26:22.233Z,62.99
2018-10-18T06:27:22.258Z,62.99
2018-10-18T06:28:22.537Z,63.09
2018-10-18T06:29:22.575Z,63.47
2018-10-18T06:30:22.594Z,63.18
2018-10-18T06:31:22.622Z,62.99
2018-10-18T06:32:22.391Z,63.28
2018-10-18T06:33:22.418Z,62.79
2018-10-18T06:34:22.704Z,63.09
2018-10-18T06:35:22.472Z,62.99
2018-10-18T06:36:22.496Z,63.09
2018-10-18T06:37:23.018Z,63.09
2018-10-18T06:38:22.550Z,63.09
2018-10-18T06:39:23.152Z,63.09
2018-10-18T06:40:22.603Z,63.09
2018-10-18T06:41:22.886Z,63.09
2018-10-18T06:42:22.657Z,62.99
2018-10-18T06:43:22.945Z,62.89
2018-10-18T06:44:22.965Z,63.09
2018-10-18T06:45:22.996Z,62.89
2018-10-18T06:46:22.767Z,63.09
2018-10-18T06:47:23.250Z,63.09
2018-10-18T06:48:22.845Z,63.09
2018-10-18T06:49:23.173Z,62.99
2018-10-18T06:50:23.134Z,62.99
2018-10-18T06:51:22.898Z,63.37
2018-10-18T06:52:23.188Z,62.99
2018-10-18T06:53:23.203Z,63.57
2018-10-18T06:54:23.238Z,63.09
2018-10-18T06:55:23.275Z,62.89
2018-10-18T06:56:23.287Z,62.99
2018-10-18T06:57:23.066Z,62.99
2018-10-18T06:58:23.340Z,62.99
2018-10-18T06:59:23.111Z,62.79
2018-10-18T07:00:23.144Z,62.99
2018-10-18T07:01:23.431Z,62.89
2018-10-18T07:02:23.449Z,62.99
2018-10-18T07:03:23.220Z,63.15
2018-10-18T07:04:23.506Z,63.09
2018-10-18T07:05:23.526Z,63.47
2018-10-18T07:06:23.554Z,63.37
2018-10-18T07:07:23.328Z,63.18
2018-10-18T07:08:23.609Z,63.37
2018-10-18T07:09:23.379Z,63.15
2018-10-18T07:10:23.410Z,63.34
2018-10-18T07:11:23.691Z,63.47
2018-10-18T07:12:23.723Z,63.37
2018-10-18T07:13:23.487Z,63.37
2018-10-18T07:14:23.773Z,63.47
2018-10-18T07:15:23.789Z,63.47
2018-10-18T07:16:23.823Z,63.34
2018-10-18T07:17:23.848Z,63.44
2018-10-18T07:18:23.876Z,63.34
2018-10-18T07:19:23.648Z,63.47
2018-10-18T07:20:23.927Z,63.44
2018-10-18T07:21:23.701Z,63.47
2018-10-18T07:22:23.725Z,63.09
2018-10-18T07:23:24.006Z,63.37
2018-10-18T07:24:24.035Z,63.28
2018-10-18T07:25:24.259Z,63.47
2018-10-18T07:26:24.086Z,63.06
2018-10-18T07:27:24.114Z,63.18
2018-10-18T07:28:23.889Z,63.34
2018-10-18T07:29:24.168Z,63.37
2018-10-18T07:30:23.938Z,63.37
2018-10-18T07:31:24.229Z,63.47
2018-10-18T07:32:23.991Z,63.37
2018-10-18T07:33:24.017Z,63.47
2018-10-18T07:34:24.300Z,63.34
2018-10-18T07:35:24.324Z,63.44
2018-10-18T07:36:24.349Z,63.44
2018-10-18T07:37:24.384Z,63.34
2018-10-18T07:38:24.405Z,63.54
2018-10-18T07:39:24.188Z,63.44
2018-10-18T07:40:24.460Z,63.34
2018-10-18T07:41:24.230Z,63.34
2018-10-18T07:42:24.517Z,63.44
2018-10-18T07:43:24.283Z,63.24
2018-10-18T07:44:24.564Z,63.37
2018-10-18T07:45:24.337Z,63.44
2018-10-18T07:46:24.361Z,63.34
2018-10-18T07:47:24.648Z,63.47
2018-10-18T07:48:24.417Z,63.44
2018-10-18T07:49:24.698Z,63.54
2018-10-18T07:50:24.931Z,63.34
2018-10-18T07:51:24.503Z,63.34
2018-10-18T07:52:24.525Z,63.44
2018-10-18T07:53:24.592Z,63.15
2018-10-18T07:54:24.839Z,63.06
2018-10-18T07:55:24.866Z,63.15
2018-10-18T07:56:24.628Z,63.24
2018-10-18T07:57:24.697Z,63.24
2018-10-18T07:58:24.684Z,63.34
2018-10-18T07:59:24.711Z,63.24
2018-10-18T08:00:24.766Z,63.15
2018-10-18T08:01:24.763Z,63.44
2018-10-18T08:02:25.045Z,63.44
2018-10-18T08:03:24.816Z,63.34
2018-10-18T08:04:24.844Z,63.44
2018-10-18T08:05:24.873Z,63.24
2018-10-18T08:06:25.150Z,63.34
2018-10-18T08:07:24.925Z,63.34
2018-10-18T08:08:25.203Z,63.34
2018-10-18T08:09:24.979Z,63.34
2018-10-18T08:10:25.262Z,63.34
2018-10-18T08:11:25.284Z,63.24
2018-10-18T08:12:25.056Z,63.44
2018-10-18T08:13:25.083Z,63.44
2018-10-18T08:14:25.362Z,63.34
2018-10-18T08:15:25.391Z,63.06
2018-10-18T08:16:25.159Z,63.34
2018-10-18T08:17:25.676Z,62.96
2018-10-18T08:18:25.466Z,62.86
2018-10-18T08:19:25.241Z,63.06
2018-10-18T08:20:25.267Z,62.96
2018-10-18T08:21:25.294Z,63.06
2018-10-18T08:22:25.634Z,62.96
2018-10-18T08:23:25.610Z,62.96
2018-10-18T08:24:25.373Z,62.86
2018-10-18T08:25:25.658Z,62.86
2018-10-18T08:26:25.685Z,62.86
2018-10-18T08:27:25.456Z,62.66
2018-10-18T08:28:25.735Z,62.96
2018-10-18T08:29:25.765Z,63.06
2018-10-18T08:30:25.534Z,62.86
2018-10-18T08:31:26.266Z,63.06
2018-10-18T08:32:25.847Z,62.86
2018-10-18T08:33:25.871Z,63.06
2018-10-18T08:34:25.646Z,63.06
2018-10-18T08:35:25.922Z,62.96
2018-10-18T08:36:25.952Z,63.24
2018-10-18T08:37:25.737Z,63.15
2018-10-18T08:38:26.009Z,63.24
2018-10-18T08:39:26.029Z,63.24
2018-10-18T08:40:26.059Z,63.44
2018-10-18T08:41:25.825Z,62.86
2018-10-18T08:42:26.106Z,63.06
2018-10-18T08:43:26.152Z,62.96
2018-10-18T08:44:26.378Z,63.15
2018-10-18T08:45:26.189Z,62.38
2018-10-18T08:46:26.225Z,62.28
2018-10-18T08:47:26.247Z,62.76
2018-10-18T08:48:26.275Z,62.57
2018-10-18T08:49:26.296Z,62.66
2018-10-18T08:50:26.066Z,62.57
2018-10-18T08:51:26.093Z,62.38
2018-10-18T08:52:26.118Z,63.06
2018-10-18T08:53:26.155Z,62.57
2018-10-18T08:54:26.473Z,62.38
2018-10-18T08:55:26.208Z,62.38
2018-10-18T08:56:26.483Z,62.48
2018-10-18T08:57:26.253Z,62.66
2018-10-18T08:58:26.536Z,62.76
2018-10-18T08:59:26.778Z,62.38
2018-10-18T09:00:26.586Z,62.38
2018-10-18T09:01:26.363Z,62.18
2018-10-18T09:02:26.643Z,62.38
2018-10-18T09:03:26.667Z,62.28
2018-10-18T09:04:26.902Z,62.38
2018-10-18T09:05:26.730Z,62.76
2018-10-18T09:06:26.743Z,62.66
2018-10-18T09:07:26.776Z,62.38
2018-10-18T09:08:26.798Z,62.38
2018-10-18T09:09:26.827Z,62.48
2018-10-18T09:10:26.863Z,62.66
2018-10-18T09:11:26.627Z,62.48
2018-10-18T09:12:26.655Z,62.76
2018-10-18T09:13:26.932Z,62.76
2018-10-18T09:14:26.961Z,62.76
2018-10-18T09:15:26.733Z,62.76
2018-10-18T09:16:27.011Z,62.66
2018-10-18T09:17:26.784Z,62.48
2018-10-18T09:18:26.809Z,62.66
2018-10-18T09:19:27.090Z,62.57
2018-10-18T09:20:26.863Z,62.38
2018-10-18T09:21:26.890Z,62.48
2018-10-18T09:22:27.171Z,62.57
2018-10-18T09:23:27.200Z,62.66
2018-10-18T09:24:27.227Z,62.57
2018-10-18T09:25:26.998Z,62.57
2018-10-18T09:26:27.281Z,62.38
2018-10-18T09:27:27.308Z,62.57
2018-10-18T09:28:27.330Z,62.57
2018-10-18T09:29:27.105Z,62.57
2018-10-18T09:30:27.520Z,62.57
2018-10-18T09:31:27.420Z,62.66
2018-10-18T09:32:27.448Z,62.57
2018-10-18T09:33:27.208Z,62.57
2018-10-18T09:34:27.235Z,62.57
2018-10-18T09:35:27.262Z,62.66
2018-10-18T09:36:27.292Z,62.57
2018-10-18T09:37:27.314Z,62.66
2018-10-18T09:38:27.792Z,62.66
2018-10-18T09:39:27.627Z,62.76
2018-10-18T09:40:27.654Z,62.57
2018-10-18T09:41:27.421Z,62.38
2018-10-18T09:42:27.446Z,62.57
2018-10-18T09:43:27.734Z,62.57
2018-10-18T09:44:27.902Z,62.66
2018-10-18T09:45:27.528Z,62.57
2018-10-18T09:46:27.814Z,62.57
2018-10-18T09:47:27.837Z,62.57
2018-10-18T09:48:27.613Z,62.38
2018-10-18T09:49:27.632Z,62.57
2018-10-18T09:50:27.663Z,62.38
2018-10-18T09:51:27.690Z,62.57
2018-10-18T09:52:27.971Z,62.57
2018-10-18T09:53:27.743Z,62.57
2018-10-18T09:54:28.040Z,62.48
2018-10-18T09:55:27.804Z,62.57
2018-10-18T09:56:28.079Z,62.57
2018-10-18T09:57:28.105Z,62.66
2018-10-18T09:58:28.134Z,62.57
2018-10-18T09:59:27.909Z,62.76
2018-10-18T10:00:28.185Z,62.38
2018-10-18T10:01:27.957Z,62.66
2018-10-18T10:02:28.239Z,62.48
2018-10-18T10:03:28.265Z,62.76
2018-10-18T10:04:28.291Z,62.57
2018-10-18T10:05:28.317Z,62.38
2018-10-18T10:06:28.347Z,62.57
2018-10-18T10:07:28.374Z,62.57
2018-10-18T10:08:28.143Z,62.57
2018-10-18T10:09:28.167Z,62.76
2018-10-18T10:10:28.450Z,62.66
2018-10-18T10:11:28.567Z,62.66
2018-10-18T10:12:28.248Z,62.76
2018-10-18T10:13:28.893Z,62.66
2018-10-18T10:14:28.757Z,62.66
2018-10-18T10:15:28.582Z,62.76
2018-10-18T10:16:28.355Z,62.48
2018-10-18T10:17:28.459Z,62.48
2018-10-18T10:18:28.405Z,62.57
2018-10-18T10:19:28.691Z,62.66
2018-10-18T10:20:28.458Z,62.57
2018-10-18T10:21:28.489Z,62.66
2018-10-18T10:22:28.766Z,62.66
2018-10-18T10:23:28.797Z,62.76
2018-10-18T10:24:28.986Z,62.66
2018-10-18T10:25:28.847Z,62.76
2018-10-18T10:26:28.874Z,62.66
2018-10-18T10:27:28.897Z,62.66
2018-10-18T10:28:28.931Z,62.76
2018-10-18T10:29:28.696Z,62.76
2018-10-18T10:30:28.820Z,62.76
2018-10-18T10:31:29.013Z,62.57
2018-10-18T10:32:29.030Z,62.76
2018-10-18T10:33:29.247Z,62.66
2018-10-18T10:34:29.086Z,62.73
2018-10-18T10:35:28.918Z,62.76
2018-10-18T10:36:28.881Z,62.73
2018-10-18T10:37:28.910Z,62.38
2018-10-18T10:38:28.939Z,62.57
2018-10-18T10:39:29.221Z,62.28
2018-10-18T10:40:29.246Z,62.57
2018-10-18T10:41:29.017Z,62.48
2018-10-18T10:42:29.042Z,62.66
2018-10-18T10:43:29.328Z,62.76
2018-10-18T10:44:29.400Z,62.57
2018-10-18T10:45:29.133Z,62.35
2018-10-18T10:46:29.152Z,62.18
2018-10-18T10:47:29.174Z,62.38
2018-10-18T10:48:29.204Z,62.54
2018-10-18T10:49:29.481Z,62.18
2018-10-18T10:50:29.257Z,62.73
2018-10-18T10:51:29.537Z,62.18
2018-10-18T10:52:29.309Z,62.18
2018-10-18T10:53:29.598Z,62.28
2018-10-18T10:54:29.620Z,62.54
2018-10-18T10:55:29.646Z,62.35
2018-10-18T10:56:29.411Z,61.9
2018-10-18T10:57:29.699Z,62.48
2018-10-18T10:58:29.727Z,61.9
2018-10-18T10:59:29.751Z,61.9
2018-10-18T11:00:29.784Z,61.99
2018-10-18T11:01:29.804Z,61.9
2018-10-18T11:02:29.828Z,62.48
2018-10-18T11:03:29.602Z,62.18
2018-10-18T11:04:29.625Z,62.38
2018-10-18T11:05:29.903Z,62.18
2018-10-18T11:06:29.936Z,62.15
2018-10-18T11:07:29.969Z,62.15
2018-10-18T11:08:29.994Z,62.66
2018-10-18T11:09:30.306Z,62.28
2018-10-18T11:10:30.039Z,62.18
2018-10-18T11:11:29.814Z,62.18
2018-10-18T11:12:30.351Z,62.18
2018-10-18T11:13:29.863Z,62.18
2018-10-18T11:14:30.149Z,62.35
2018-10-18T11:15:30.178Z,62.28
2018-10-18T11:16:30.204Z,61.99
2018-10-18T11:17:30.240Z,61.99
2018-10-18T11:18:30.253Z,61.9
2018-10-18T11:19:30.285Z,62.28
2018-10-18T11:20:30.308Z,62.09
2018-10-18T11:21:30.130Z,62.15
2018-10-18T11:22:30.359Z,61.96
2018-10-18T11:23:30.131Z,62.15
2018-10-18T11:24:30.168Z,61.99
2018-10-18T11:25:30.442Z,62.15
2018-10-18T11:26:30.468Z,62.06
2018-10-18T11:27:30.239Z,62.25
2018-10-18T11:28:30.519Z,61.96
2018-10-18T11:29:30.548Z,61.87
2018-10-18T11:30:30.575Z,61.99
2018-10-18T11:31:30.601Z,62.06
2018-10-18T11:32:30.622Z,62.15
2018-10-18T11:33:30.630Z,61.77
2018-10-18T11:34:30.897Z,61.77
2018-10-18T11:35:30.683Z,61.9
2018-10-18T11:36:30.707Z,62.09
2018-10-18T11:37:30.484Z,62.18
2018-10-18T11:38:30.511Z,62.06
2018-10-18T11:39:30.787Z,61.8
2018-10-18T11:40:30.817Z,61.9
2018-10-18T11:41:30.842Z,61.9
2018-10-18T11:42:30.965Z,61.87
2018-10-18T11:43:30.910Z,61.99
2018-10-18T11:44:30.923Z,62.09
2018-10-18T11:45:30.695Z,61.99
2018-10-18T11:46:30.975Z,62.09
2018-10-18T11:47:31.003Z,62.09
2018-10-18T11:48:30.778Z,61.9
2018-10-18T11:49:31.056Z,62.06
2018-10-18T11:50:30.830Z,62.18
2018-10-18T11:51:31.303Z,61.87
2018-10-18T11:52:31.134Z,61.9
2018-10-18T11:53:30.915Z,61.87
2018-10-18T11:54:30.935Z,61.8
2018-10-18T11:55:30.964Z,61.87
2018-10-18T11:56:30.992Z,62.09
2018-10-18T11:57:31.020Z,61.9
2018-10-18T11:58:31.289Z,61.71
2018-10-18T11:59:31.320Z,62.09
2018-10-18T12:00:31.092Z,62.15
2018-10-18T12:01:31.120Z,62.09
2018-10-18T12:02:31.194Z,62.09
2018-10-18T12:03:31.178Z,62.09
2018-10-18T12:04:31.464Z,62.09
2018-10-18T12:05:31.230Z,61.87
2018-10-18T12:06:31.258Z,61.9
2018-10-18T12:07:31.530Z,61.8
2018-10-18T12:08:31.562Z,61.8
2018-10-18T12:09:31.591Z,61.61
2018-10-18T12:10:31.363Z,62.06
2018-10-18T12:11:31.635Z,62.06
2018-10-18T12:12:31.413Z,62.09
2018-10-18T12:13:31.686Z,61.99
2018-10-18T12:14:31.716Z,62.48
2018-10-18T12:15:31.741Z,62.25
2018-10-18T12:16:31.775Z,61.61
2018-10-18T12:17:31.551Z,62.18
2018-10-18T12:18:31.819Z,62.35
2018-10-18T12:19:31.600Z,62.25
2018-10-18T12:20:31.624Z,62.38
2018-10-18T12:21:31.906Z,62.18
2018-10-18T12:22:31.929Z,62.18
2018-10-18T12:23:32.002Z,61.77
2018-10-18T12:24:31.727Z,61.68
2018-10-18T12:25:32.004Z,61.68
2018-10-18T12:26:32.041Z,62.18
2018-10-18T12:27:32.060Z,61.77
2018-10-18T12:28:31.845Z,62.25
2018-10-18T12:29:32.116Z,61.8
2018-10-18T12:30:32.140Z,61.96
2018-10-18T12:31:32.169Z,61.77
2018-10-18T12:32:31.941Z,62.06
2018-10-18T12:33:32.420Z,61.96
2018-10-18T12:34:32.247Z,62.06
2018-10-18T12:35:32.023Z,61.87
2018-10-18T12:36:32.302Z,61.96
2018-10-18T12:37:32.074Z,62.09
2018-10-18T12:38:32.109Z,62.15
2018-10-18T12:39:32.254Z,62.28
2018-10-18T12:40:32.748Z,62.15
2018-10-18T12:41:32.713Z,61.96
2018-10-18T12:42:32.209Z,61.96
2018-10-18T12:43:32.479Z,61.99
2018-10-18T12:44:32.511Z,61.99
2018-10-18T12:45:32.289Z,62.28
2018-10-18T12:46:32.565Z,62.06
2018-10-18T12:47:32.590Z,61.96
2018-10-18T12:48:32.438Z,61.96
2018-10-18T12:49:32.644Z,62.15
2018-10-18T12:50:32.422Z,62.15
2018-10-18T12:51:32.695Z,62.25
2018-10-18T12:52:32.722Z,61.96
2018-10-18T12:53:32.752Z,62.15
2018-10-18T12:54:32.555Z,61.9
2018-10-18T12:55:32.802Z,61.87